createdAt,value
2022-07-28T00:00:16.332Z,53.70
2022-07-28T00:02:43.999Z,53.60
2022-07-28T00:05:11.703Z,53.60
2022-07-28T00:07:40.750Z,53.60
2022-07-28T00:10:09.255Z,53.60
2022-07-28T00:12:37.126Z,53.70
2022-07-28T00:15:05.147Z,53.70
2022-07-28T00:17:32.828Z,53.70
2022-07-28T00:20:00.445Z,53.70
2022-07-28T00:22:28.004Z,53.70
2022-07-28T00:24:57.078Z,53.80
2022-07-28T00:27:24.586Z,53.70
2022-07-28T00:29:52.167Z,53.80
2022-07-28T00:32:19.833Z,53.80
2022-07-28T00:34:47.591Z,53.80
2022-07-28T00:37:15.278Z,53.80
2022-07-28T00:39:42.965Z,53.80
2022-07-28T00:42:12.062Z,53.80
2022-07-28T00:44:39.641Z,53.80
2022-07-28T00:47:07.259Z,53.90
2022-07-28T00:49:34.874Z,53.80
2022-07-28T00:52:02.488Z,53.90
2022-07-28T00:54:30.213Z,53.90
2022-07-28T00:56:57.864Z,53.90
2022-07-28T00:59:27.359Z,53.90
2022-07-28T01:01:55.056Z,53.90
2022-07-28T01:04:22.855Z,54.00
2022-07-28T01:06:57.253Z,54.60
2022-07-28T01:09:37.979Z,54.00
2022-07-28T01:12:11.848Z,54.00
2022-07-28T01:14:42.709Z,54.60
2022-07-28T01:17:12.438Z,54.10
2022-07-28T01:19:42.694Z,54.30
2022-07-28T01:22:10.937Z,54.30
2022-07-28T01:24:48.969Z,54.30
2022-07-28T01:27:27.321Z,54.10
2022-07-28T01:30:08.057Z,54.10
2022-07-28T01:32:43.499Z,54.10
2022-07-28T01:35:14.684Z,54.20
2022-07-28T01:37:45.513Z,54.20
2022-07-28T01:40:15.835Z,54.20
2022-07-28T01:42:47.242Z,54.30
2022-07-28T01:45:14.872Z,54.30
2022-07-28T01:47:44.416Z,54.30
2022-07-28T01:50:12.524Z,54.30
2022-07-28T01:52:41.578Z,54.30
2022-07-28T01:55:10.163Z,54.40
2022-07-28T01:57:37.678Z,54.30
2022-07-28T02:00:06.993Z,54.40
2022-07-28T02:02:34.638Z,54.40
2022-07-28T02:05:03.931Z,54.40
2022-07-28T02:07:31.630Z,54.40
2022-07-28T02:09:59.263Z,54.40
2022-07-28T02:12:26.950Z,55.00
2022-07-28T02:14:54.502Z,54.40
2022-07-28T02:17:28.330Z,54.40
2022-07-28T02:19:55.588Z,54.40
2022-07-28T02:22:24.811Z,54.60
2022-07-28T02:24:53.429Z,54.70
2022-07-28T02:27:23.892Z,54.70
2022-07-28T02:29:55.183Z,54.70
2022-07-28T02:32:27.742Z,54.60
2022-07-28T02:34:59.320Z,54.60
2022-07-28T02:37:28.326Z,54.60
2022-07-28T02:40:00.279Z,54.70
2022-07-28T02:42:30.749Z,54.60
2022-07-28T02:44:59.692Z,54.70
2022-07-28T02:47:29.513Z,54.70
2022-07-28T02:49:57.806Z,54.70
2022-07-28T02:52:25.893Z,54.70
2022-07-28T02:54:54.974Z,54.70
2022-07-28T02:57:22.709Z,54.70
2022-07-28T02:59:50.516Z,54.70
2022-07-28T03:02:19.870Z,54.70
2022-07-28T03:04:47.566Z,54.70
2022-07-28T03:07:15.167Z,54.80
2022-07-28T03:09:43.715Z,54.80
2022-07-28T03:12:12.800Z,54.80
2022-07-28T03:14:40.463Z,54.70
2022-07-28T03:17:08.022Z,54.80
2022-07-28T03:19:35.783Z,54.80
2022-07-28T03:22:03.265Z,54.80
2022-07-28T03:24:32.819Z,54.80
2022-07-28T03:27:03.267Z,54.80
2022-07-28T03:29:32.988Z,54.90
2022-07-28T03:32:00.502Z,54.90
2022-07-28T03:34:28.215Z,54.90
2022-07-28T03:37:00.431Z,54.90
2022-07-28T03:39:28.128Z,54.90
2022-07-28T03:42:00.478Z,54.90
2022-07-28T03:44:29.007Z,54.90
2022-07-28T03:46:58.320Z,55.00
2022-07-28T03:49:25.866Z,54.90
2022-07-28T03:51:53.449Z,55.00
2022-07-28T03:54:20.965Z,55.00
2022-07-28T03:56:48.450Z,55.00
2022-07-28T03:59:15.962Z,55.00
2022-07-28T04:01:43.974Z,55.00
2022-07-28T04:04:13.483Z,55.00
2022-07-28T04:06:41.409Z,55.10
2022-07-28T04:09:08.996Z,55.10
2022-07-28T04:11:36.501Z,55.10
2022-07-28T04:14:04.199Z,55.10
2022-07-28T04:16:31.734Z,55.10
2022-07-28T04:18:59.362Z,55.10
2022-07-28T04:21:28.327Z,55.20
2022-07-28T04:24:01.410Z,55.20
2022-07-28T04:26:29.520Z,55.20
2022-07-28T04:28:57.075Z,55.20
2022-07-28T04:31:24.639Z,55.20
2022-07-28T04:33:52.216Z,55.20
2022-07-28T04:36:19.836Z,55.20
2022-07-28T04:38:49.011Z,55.20
2022-07-28T04:41:16.562Z,55.20
2022-07-28T04:43:44.133Z,55.20
2022-07-28T04:46:14.986Z,55.20
2022-07-28T04:48:42.940Z,55.20
2022-07-28T04:51:10.758Z,55.20
2022-07-28T04:53:38.379Z,55.30
2022-07-28T04:56:07.553Z,55.30
2022-07-28T04:58:35.124Z,55.30
2022-07-28T05:01:02.851Z,55.30
2022-07-28T05:03:36.017Z,55.30
2022-07-28T05:06:04.251Z,55.30
2022-07-28T05:08:31.809Z,55.40
2022-07-28T05:10:59.363Z,55.40
2022-07-28T05:13:33.769Z,55.40
2022-07-28T05:16:02.276Z,55.40
2022-07-28T05:18:29.851Z,55.40
2022-07-28T05:20:57.551Z,55.40
2022-07-28T05:23:25.725Z,55.40
2022-07-28T05:25:53.273Z,55.40
2022-07-28T05:28:20.872Z,55.40
2022-07-28T05:30:49.928Z,55.40
2022-07-28T05:33:17.545Z,55.40
2022-07-28T05:35:45.944Z,55.50
2022-07-28T05:38:13.752Z,55.50
2022-07-28T05:40:41.264Z,55.50
2022-07-28T05:43:08.686Z,55.50
2022-07-28T05:45:36.399Z,55.50
2022-07-28T05:48:05.633Z,55.50
2022-07-28T05:50:33.225Z,55.50
2022-07-28T05:53:01.131Z,55.50
2022-07-28T05:55:28.831Z,55.50
2022-07-28T05:57:56.250Z,55.60
2022-07-28T06:00:23.990Z,55.60
2022-07-28T06:02:51.535Z,55.60
2022-07-28T06:05:21.853Z,55.60
2022-07-28T06:07:51.425Z,55.60
2022-07-28T06:10:21.007Z,55.60
2022-07-28T06:12:49.712Z,55.60
2022-07-28T06:15:18.676Z,55.60
2022-07-28T06:17:46.329Z,55.70
2022-07-28T06:20:13.936Z,55.70
2022-07-28T06:22:43.611Z,55.60
2022-07-28T06:25:15.036Z,55.70
2022-07-28T06:27:42.694Z,55.70
2022-07-28T06:30:10.953Z,55.70
2022-07-28T06:32:38.578Z,55.80
2022-07-28T06:35:07.499Z,55.90
2022-07-28T06:37:35.050Z,56.00
2022-07-28T06:40:05.302Z,56.00
2022-07-28T06:42:32.942Z,55.90
2022-07-28T06:45:00.634Z,55.80
2022-07-28T06:47:28.263Z,55.70
2022-07-28T06:49:55.905Z,55.70
2022-07-28T06:52:23.538Z,55.70
2022-07-28T06:54:51.070Z,55.70
2022-07-28T06:57:21.896Z,55.70
2022-07-28T06:59:49.558Z,55.70
2022-07-28T07:02:17.260Z,55.80
2022-07-28T07:04:45.266Z,55.80
2022-07-28T07:07:15.355Z,55.80
2022-07-28T07:09:44.975Z,55.70
2022-07-28T07:12:12.522Z,55.80
2022-07-28T07:14:41.680Z,55.70
2022-07-28T07:17:09.286Z,55.70
2022-07-28T07:19:36.864Z,55.60
2022-07-28T07:22:04.480Z,55.70
2022-07-28T07:24:32.112Z,55.60
2022-07-28T07:26:59.710Z,55.60
2022-07-28T07:29:30.313Z,55.60
2022-07-28T07:31:59.879Z,55.50
2022-07-28T07:34:27.614Z,55.50
2022-07-28T07:36:55.146Z,55.50
2022-07-28T07:39:22.773Z,55.50
2022-07-28T07:41:50.516Z,55.50
2022-07-28T07:44:18.340Z,55.50
2022-07-28T07:46:46.279Z,55.50
2022-07-28T07:49:15.468Z,55.50
2022-07-28T07:51:44.448Z,55.50
2022-07-28T07:54:12.389Z,55.40
2022-07-28T07:56:40.452Z,55.40
2022-07-28T07:59:08.080Z,55.30
2022-07-28T08:01:35.696Z,55.30
2022-07-28T08:04:08.451Z,55.30
2022-07-28T08:06:37.579Z,55.30
2022-07-28T08:09:07.617Z,55.30
2022-07-28T08:11:35.096Z,55.20
2022-07-28T08:14:02.683Z,55.20
2022-07-28T08:16:30.477Z,55.20
2022-07-28T08:18:58.311Z,55.20
2022-07-28T08:21:25.915Z,55.20
2022-07-28T08:23:55.052Z,55.20
2022-07-28T08:26:22.892Z,55.20
2022-07-28T08:28:50.406Z,55.20
2022-07-28T08:31:18.573Z,55.20
2022-07-28T08:33:53.774Z,55.20
2022-07-28T08:36:22.290Z,55.20
2022-07-28T08:38:49.945Z,55.20
2022-07-28T08:41:21.023Z,55.10
2022-07-28T08:43:48.622Z,55.10
2022-07-28T08:46:16.339Z,55.10
2022-07-28T08:48:44.140Z,55.10
2022-07-28T08:51:12.022Z,55.10
2022-07-28T08:53:40.684Z,55.10
2022-07-28T08:56:09.083Z,55.70
2022-07-28T08:58:38.190Z,55.10
2022-07-28T09:01:06.856Z,55.10
2022-07-28T09:03:34.798Z,55.10
2022-07-28T09:06:02.602Z,55.10
2022-07-28T09:08:30.302Z,55.10
2022-07-28T09:10:58.038Z,55.20
2022-07-28T09:13:25.617Z,55.20
2022-07-28T09:15:54.817Z,55.20
2022-07-28T09:18:22.526Z,55.20
2022-07-28T09:20:50.148Z,55.30
2022-07-28T09:23:42.678Z,55.30
2022-07-28T09:26:11.298Z,55.30
2022-07-28T09:28:53.556Z,55.30
2022-07-28T09:31:23.544Z,55.30
2022-07-28T09:33:58.481Z,55.30
2022-07-28T09:36:26.062Z,55.30
2022-07-28T09:38:53.723Z,55.30
2022-07-28T09:41:21.361Z,55.40
2022-07-28T09:43:54.492Z,55.40
2022-07-28T09:46:26.136Z,55.40
2022-07-28T09:48:57.272Z,55.40
2022-07-28T09:51:26.863Z,55.50
2022-07-28T09:53:55.039Z,55.50
2022-07-28T09:56:22.672Z,55.50
2022-07-28T09:58:57.469Z,55.50
2022-07-28T10:01:29.914Z,55.50
2022-07-28T10:04:04.680Z,55.50
2022-07-28T10:06:32.988Z,55.60
2022-07-28T10:09:01.399Z,55.50
2022-07-28T10:11:29.789Z,55.50
2022-07-28T10:13:59.298Z,55.50
2022-07-28T10:16:29.678Z,55.50
2022-07-28T10:18:57.734Z,55.50
2022-07-28T10:21:25.345Z,55.60
2022-07-28T10:23:53.912Z,55.60
2022-07-28T10:26:23.567Z,55.60
2022-07-28T10:28:52.107Z,55.60
2022-07-28T10:31:41.427Z,55.60
2022-07-28T10:34:16.062Z,55.60
2022-07-28T10:36:44.007Z,55.70
2022-07-28T10:39:14.548Z,55.70
2022-07-28T10:41:42.973Z,55.70
2022-07-28T10:44:11.840Z,55.70
2022-07-28T10:46:42.097Z,55.70
2022-07-28T10:49:09.977Z,55.70
2022-07-28T10:51:48.833Z,55.70
2022-07-28T10:54:28.176Z,55.70
2022-07-28T10:56:57.193Z,55.70
2022-07-28T10:59:53.189Z,56.30
2022-07-28T11:02:46.572Z,55.60
2022-07-28T11:05:33.544Z,55.70
2022-07-28T11:08:02.422Z,55.70
2022-07-28T11:10:30.280Z,55.80
2022-07-28T11:12:58.398Z,55.80
2022-07-28T11:15:27.655Z,55.80
2022-07-28T11:18:06.727Z,55.70
2022-07-28T11:21:10.050Z,55.70
2022-07-28T11:23:54.084Z,55.60
2022-07-28T11:26:28.722Z,55.70
2022-07-28T11:29:15.182Z,55.80
2022-07-28T11:32:02.013Z,55.70
2022-07-28T11:35:08.815Z,55.70
2022-07-28T11:38:07.293Z,55.70
2022-07-28T11:40:35.735Z,55.80
2022-07-28T11:43:36.456Z,55.80
2022-07-28T11:46:34.925Z,55.70
2022-07-28T11:49:17.574Z,55.80
2022-07-28T11:52:11.074Z,55.90
2022-07-28T11:54:39.478Z,55.80
2022-07-28T11:57:07.206Z,55.90
2022-07-28T11:59:47.270Z,55.80
2022-07-28T12:02:18.961Z,55.70
2022-07-28T12:04:51.042Z,55.80
2022-07-28T12:07:20.178Z,55.80
2022-07-28T12:09:49.016Z,55.80
2022-07-28T12:12:16.616Z,55.80
2022-07-28T12:14:44.140Z,55.80
2022-07-28T12:17:12.374Z,55.80
2022-07-28T12:19:40.547Z,55.80
2022-07-28T12:22:13.444Z,55.80
2022-07-28T12:24:45.727Z,55.80
2022-07-28T12:27:15.234Z,55.90
2022-07-28T12:29:47.886Z,55.90
2022-07-28T12:32:17.144Z,55.90
2022-07-28T12:34:45.345Z,55.90
2022-07-28T12:37:12.877Z,55.80
2022-07-28T12:39:40.516Z,55.80
2022-07-28T12:42:10.120Z,55.80
2022-07-28T12:44:38.847Z,55.80
2022-07-28T12:47:07.741Z,55.80
2022-07-28T12:49:35.261Z,55.90
2022-07-28T12:52:16.010Z,55.90
2022-07-28T12:54:43.578Z,55.80
2022-07-28T12:57:48.665Z,55.90
2022-07-28T13:00:19.669Z,55.90
2022-07-28T13:02:48.189Z,56.00
2022-07-28T13:05:29.509Z,55.90
2022-07-28T13:08:03.066Z,55.90
2022-07-28T13:10:32.604Z,56.00
2022-07-28T13:13:03.798Z,56.00
2022-07-28T13:15:31.451Z,56.00
2022-07-28T13:17:59.325Z,56.00
2022-07-28T13:20:26.976Z,56.00
2022-07-28T13:22:54.542Z,56.00
2022-07-28T13:25:22.304Z,56.00
2022-07-28T13:27:55.057Z,56.00
2022-07-28T13:30:25.024Z,56.00
2022-07-28T13:32:52.667Z,56.00
2022-07-28T13:35:20.894Z,56.00
2022-07-28T13:37:49.046Z,56.00
2022-07-28T13:40:16.718Z,56.00
2022-07-28T13:42:53.115Z,56.00
2022-07-28T13:45:30.268Z,56.00
2022-07-28T13:47:58.116Z,56.10
2022-07-28T13:50:25.804Z,56.10
2022-07-28T13:52:53.547Z,56.20
2022-07-28T13:55:22.755Z,56.20
2022-07-28T13:57:51.544Z,56.20
2022-07-28T14:00:22.835Z,56.10
2022-07-28T14:02:52.267Z,56.20
2022-07-28T14:05:20.039Z,56.40
2022-07-28T14:07:48.311Z,56.20
2022-07-28T14:10:16.662Z,56.20
2022-07-28T14:12:44.906Z,56.20
2022-07-28T14:15:14.137Z,56.20
2022-07-28T14:17:44.374Z,56.20
2022-07-28T14:20:14.849Z,56.20
2022-07-28T14:22:42.485Z,56.20
2022-07-28T14:25:10.776Z,56.20
2022-07-28T14:27:38.475Z,56.20
2022-07-28T14:30:07.690Z,56.20
2022-07-28T14:32:35.261Z,56.30
2022-07-28T14:35:02.865Z,56.20
2022-07-28T14:37:55.136Z,56.20
2022-07-28T14:40:19.734Z,56.20
2022-07-28T14:42:47.251Z,56.30
2022-07-28T14:45:14.876Z,56.30
2022-07-28T14:47:45.143Z,56.30
2022-07-28T14:50:13.421Z,56.30
2022-07-28T14:52:44.782Z,56.30
2022-07-28T14:55:13.286Z,56.30
2022-07-28T14:57:51.881Z,56.30
2022-07-28T15:00:22.870Z,56.30
2022-07-28T15:02:50.564Z,56.30
2022-07-28T15:05:18.490Z,56.30
2022-07-28T15:07:47.641Z,56.30
2022-07-28T15:10:15.384Z,56.30
2022-07-28T15:12:42.936Z,56.30
2022-07-28T15:15:11.719Z,56.30
2022-07-28T15:17:39.326Z,56.20
2022-07-28T15:20:08.639Z,56.20
2022-07-28T15:22:36.338Z,56.20
2022-07-28T15:25:06.347Z,56.20
2022-07-28T15:27:34.155Z,56.20
2022-07-28T15:30:02.936Z,56.20
2022-07-28T15:32:31.131Z,56.20
2022-07-28T15:34:59.580Z,56.20
2022-07-28T15:37:27.277Z,56.20
2022-07-28T15:39:54.871Z,56.20
2022-07-28T15:42:23.938Z,56.20
2022-07-28T15:44:52.567Z,56.20
2022-07-28T15:47:20.149Z,56.20
2022-07-28T15:49:47.856Z,56.30
2022-07-28T15:52:15.504Z,56.30
2022-07-28T15:54:43.088Z,56.90
2022-07-28T15:57:10.611Z,56.30
2022-07-28T15:59:49.670Z,56.30
2022-07-28T16:02:18.822Z,56.30
2022-07-28T16:04:53.391Z,56.30
2022-07-28T16:07:22.437Z,56.30
2022-07-28T16:09:50.853Z,56.30
2022-07-28T16:12:18.413Z,56.30
2022-07-28T16:14:47.498Z,56.40
2022-07-28T16:17:15.268Z,56.30
2022-07-28T16:19:50.710Z,56.40
2022-07-28T16:22:18.726Z,56.40
2022-07-28T16:24:46.302Z,56.30
2022-07-28T16:27:13.902Z,56.40
2022-07-28T16:29:41.486Z,56.30
2022-07-28T16:32:10.521Z,56.30
2022-07-28T16:34:38.195Z,56.30
2022-07-28T16:37:06.178Z,56.30
2022-07-28T16:39:34.231Z,56.50
2022-07-28T16:42:01.902Z,56.30
2022-07-28T16:44:29.519Z,56.30
2022-07-28T16:46:57.380Z,56.30
2022-07-28T16:49:26.513Z,56.30
2022-07-28T16:51:54.176Z,56.20
2022-07-28T16:54:21.808Z,56.30
2022-07-28T16:56:49.420Z,56.30
2022-07-28T16:59:17.137Z,56.30
2022-07-28T17:01:46.564Z,56.30
2022-07-28T17:04:15.312Z,56.30
2022-07-28T17:06:45.102Z,56.30
2022-07-28T17:09:12.712Z,56.30
2022-07-28T17:11:40.160Z,56.30
2022-07-28T17:14:07.776Z,56.40
2022-07-28T17:16:35.434Z,56.50
2022-07-28T17:19:03.031Z,56.40
2022-07-28T17:21:30.607Z,56.50
2022-07-28T17:23:59.854Z,56.50
2022-07-28T17:27:32.516Z,56.50
2022-07-28T17:29:15.080Z,56.50
2022-07-28T17:31:42.686Z,56.60
2022-07-28T17:34:10.360Z,56.60
2022-07-28T17:36:37.939Z,56.60
2022-07-28T17:39:10.491Z,56.70
2022-07-28T17:41:38.038Z,56.70
2022-07-28T17:44:05.816Z,56.70
2022-07-28T17:46:33.512Z,56.60
2022-07-28T17:49:02.261Z,56.60
2022-07-28T17:51:29.998Z,56.60
2022-07-28T17:53:57.601Z,56.80
2022-07-28T17:56:27.348Z,56.70
2022-07-28T17:58:56.567Z,56.80
2022-07-28T18:01:24.195Z,56.80
2022-07-28T18:03:59.522Z,56.80
2022-07-28T18:06:29.877Z,56.70
2022-07-28T18:08:57.491Z,56.90
2022-07-28T18:11:31.333Z,56.90
2022-07-28T18:14:15.710Z,56.90
2022-07-28T18:16:45.752Z,56.90
2022-07-28T18:19:13.357Z,57.10
2022-07-28T18:21:43.239Z,57.80
2022-07-28T18:24:11.305Z,57.20
2022-07-28T18:26:40.370Z,57.20
2022-07-28T18:29:08.019Z,57.40
2022-07-28T18:31:35.699Z,57.40
2022-07-28T18:34:03.353Z,57.60
2022-07-28T18:36:30.934Z,57.60
2022-07-28T18:38:58.529Z,57.90
2022-07-28T18:41:26.160Z,57.90
2022-07-28T18:43:55.173Z,57.80
2022-07-28T18:46:22.894Z,57.80
2022-07-28T18:48:57.074Z,57.80
2022-07-28T18:51:25.684Z,58.00
2022-07-28T18:53:53.404Z,58.10
2022-07-28T18:56:20.929Z,58.10
2022-07-28T18:58:48.541Z,58.10
2022-07-28T19:01:17.648Z,58.10
2022-07-28T19:03:45.235Z,58.10
2022-07-28T19:06:12.920Z,58.20
2022-07-28T19:08:40.482Z,58.10
2022-07-28T19:11:08.119Z,58.20
2022-07-28T19:13:35.754Z,58.10
2022-07-28T19:16:03.613Z,58.20
2022-07-28T19:18:32.691Z,58.20
2022-07-28T19:21:00.318Z,58.30
2022-07-28T19:23:27.974Z,57.70
2022-07-28T19:25:55.632Z,58.30
2022-07-28T19:28:23.327Z,58.20
2022-07-28T19:30:51.065Z,58.30
2022-07-28T19:33:19.407Z,58.20
2022-07-28T19:35:48.708Z,58.20
2022-07-28T19:38:17.049Z,58.20
2022-07-28T19:40:44.594Z,58.20
2022-07-28T19:43:12.151Z,58.30
2022-07-28T19:45:39.716Z,58.30
2022-07-28T19:48:07.501Z,58.30
2022-07-28T19:50:35.248Z,58.30
2022-07-28T19:53:05.204Z,58.40
2022-07-28T19:55:32.967Z,58.40
2022-07-28T19:58:00.566Z,58.50
2022-07-28T20:00:28.177Z,58.50
2022-07-28T20:02:56.725Z,58.50
2022-07-28T20:05:24.462Z,58.50
2022-07-28T20:07:52.020Z,58.60
2022-07-28T20:10:21.097Z,58.60
2022-07-28T20:12:48.719Z,58.60
2022-07-28T20:15:16.348Z,58.50
2022-07-28T20:17:43.865Z,58.50
2022-07-28T20:20:12.723Z,58.40
2022-07-28T20:22:40.299Z,58.50
2022-07-28T20:25:09.362Z,58.40
2022-07-28T20:27:40.471Z,58.40
2022-07-28T20:30:09.361Z,58.30
2022-07-28T20:32:37.030Z,58.30
2022-07-28T20:35:05.027Z,58.30
2022-07-28T20:37:37.241Z,58.30
2022-07-28T20:40:07.089Z,58.20
2022-07-28T20:42:34.760Z,58.20
2022-07-28T20:45:04.201Z,58.20
2022-07-28T20:47:32.428Z,58.20
2022-07-28T20:50:00.143Z,58.10
2022-07-28T20:52:27.720Z,58.10
2022-07-28T20:54:55.358Z,58.40
2022-07-28T20:57:23.062Z,58.10
2022-07-28T20:59:50.698Z,58.10
2022-07-28T21:02:19.899Z,58.10
2022-07-28T21:04:50.247Z,58.10
2022-07-28T21:08:00.418Z,58.10
2022-07-28T21:10:06.950Z,58.10
2022-07-28T21:12:34.598Z,58.20
2022-07-28T21:15:02.318Z,58.30
2022-07-28T21:17:31.502Z,58.20
2022-07-28T21:19:59.182Z,58.20
2022-07-28T21:22:26.791Z,58.30
2022-07-28T21:24:55.695Z,58.30
2022-07-28T21:27:23.841Z,58.30
2022-07-28T21:32:18.029Z,58.40
2022-07-28T21:34:47.092Z,58.40
2022-07-28T21:37:14.650Z,58.50
2022-07-28T21:39:42.241Z,58.50
2022-07-28T21:42:09.876Z,58.60
2022-07-28T21:44:37.602Z,58.60
2022-07-28T21:47:05.616Z,58.60
2022-07-28T21:49:33.221Z,58.60
2022-07-28T21:52:02.312Z,58.60
2022-07-28T21:54:29.849Z,58.60
2022-07-28T21:56:59.064Z,58.60
2022-07-28T21:59:26.680Z,58.60
2022-07-28T22:01:54.412Z,58.60
2022-07-28T22:04:22.239Z,58.60
2022-07-28T22:06:50.531Z,58.60
2022-07-28T22:09:19.663Z,58.60
2022-07-28T22:11:47.313Z,58.60
2022-07-28T22:14:15.117Z,58.60
2022-07-28T22:16:43.102Z,58.70
2022-07-28T22:19:10.769Z,58.70
2022-07-28T22:21:38.414Z,58.70
2022-07-28T22:24:06.312Z,58.70
2022-07-28T22:26:35.362Z,58.70
2022-07-28T22:29:02.969Z,58.70
2022-07-28T22:31:30.730Z,58.80
2022-07-28T22:33:58.304Z,58.80
2022-07-28T22:36:25.931Z,58.80
2022-07-28T22:38:53.491Z,58.80
2022-07-28T22:41:21.068Z,58.80
2022-07-28T22:43:50.309Z,58.80
2022-07-28T22:46:17.958Z,58.80
2022-07-28T22:48:45.601Z,58.80
2022-07-28T22:51:13.523Z,58.80
2022-07-28T22:53:41.202Z,58.80
2022-07-28T22:58:55.426Z,58.80
2022-07-28T23:01:24.331Z,58.90
2022-07-28T23:03:53.155Z,58.90
2022-07-28T23:06:20.864Z,58.90
2022-07-28T23:08:48.470Z,58.90
2022-07-28T23:11:15.997Z,58.90
2022-07-28T23:13:43.605Z,58.90
2022-07-28T23:16:13.502Z,58.80
2022-07-28T23:18:41.243Z,58.90
2022-07-28T23:21:09.044Z,58.90
2022-07-28T23:23:36.950Z,58.90
2022-07-28T23:26:04.513Z,58.80
2022-07-28T23:28:32.130Z,58.90
2022-07-28T23:30:59.721Z,58.90
2022-07-28T23:33:56.275Z,58.80
2022-07-28T23:36:26.760Z,58.90
2022-07-28T23:38:56.600Z,58.90
2022-07-28T23:41:24.356Z,58.90
2022-07-28T23:43:51.968Z,58.90
2022-07-28T23:46:19.644Z,58.90
2022-07-28T23:48:48.846Z,58.90
2022-07-28T23:51:16.485Z,58.90
2022-07-28T23:53:44.209Z,58.90
2022-07-28T23:56:11.793Z,58.90
2022-07-28T23:58:39.387Z,58.80
